Time;durP1;ratioP1;P1;durP2;ratioP2;P2;SDS_P1;SDS_P2;PMS_P1;PMS_P2;Temp;Humidity;BMP_temperature;BMP_pressure;BME280_temperature;BME280_humidity;BME280_pressure;Samples;Min_cycle;Max_cycle;Signal;HPM_P1;HPM_P2
2023/05/16 00:01:48;;;;;;;11.18;8.48;;;12.50;99.90;;;;;;4999767;28;20049;-65
2023/05/16 00:04:16;;;;;;;9.43;8.40;;;12.50;99.90;;;;;;5001784;28;20140;-62
2023/05/16 00:06:43;;;;;;;9.60;8.63;;;12.40;99.90;;;;;;5003128;28;20061;-65
2023/05/16 00:09:10;;;;;;;8.38;7.57;;;12.40;99.90;;;;;;5000885;28;20137;-62
2023/05/16 00:11:37;;;;;;;8.88;8.07;;;12.30;99.90;;;;;;5000478;28;20053;-64
2023/05/16 00:14:04;;;;;;;8.50;7.70;;;12.30;99.90;;;;;;5003400;28;20053;-59
2023/05/16 00:16:31;;;;;;;11.68;8.00;;;12.30;99.90;;;;;;5003112;28;20065;-64
2023/05/16 00:18:59;;;;;;;12.13;9.02;;;12.30;99.90;;;;;;5000248;28;20077;-62
2023/05/16 00:21:27;;;;;;;10.07;9.10;;;12.20;99.90;;;;;;5000683;28;20057;-68
2023/05/16 00:23:53;;;;;;;10.10;9.00;;;12.20;99.90;;;;;;5003767;28;20053;-63
2023/05/16 00:26:21;;;;;;;12.00;10.27;;;12.20;99.90;;;;;;5000486;28;20054;-65
2023/05/16 00:28:48;;;;;;;14.27;9.13;;;12.10;99.90;;;;;;5003451;28;20049;-62
2023/05/16 00:31:14;;;;;;;12.15;9.27;;;12.10;99.90;;;;;;5001048;28;20115;-65
2023/05/16 00:33:41;;;;;;;10.75;9.77;;;12.10;99.90;;;;;;4980662;28;20057;-63
2023/05/16 00:36:08;;;;;;;11.13;9.43;;;12.00;99.90;;;;;;4984522;28;20050;-65
2023/05/16 00:38:36;;;;;;;13.32;10.07;;;12.00;99.90;;;;;;5001009;28;20160;-58
2023/05/16 00:41:03;;;;;;;12.40;10.38;;;12.00;99.90;;;;;;5000568;28;20055;-70
2023/05/16 00:43:30;;;;;;;10.75;9.38;;;12.00;99.90;;;;;;5000175;28;20038;-60
2023/05/16 00:45:57;;;;;;;11.93;10.75;;;12.00;99.90;;;;;;5004327;28;20491;-70
2023/05/16 00:48:24;;;;;;;11.27;10.15;;;11.90;99.90;;;;;;4998402;28;20487;-69
2023/05/16 00:50:52;;;;;;;10.48;9.40;;;11.90;99.90;;;;;;4999620;28;20053;-65
2023/05/16 00:53:22;;;;;;;10.50;8.63;;;11.90;99.90;;;;;;4983028;28;20065;-61
2023/05/16 00:55:50;;;;;;;10.20;9.10;;;11.90;99.90;;;;;;5002628;28;20049;-59
2023/05/16 00:58:17;;;;;;;11.25;10.10;;;11.90;99.90;;;;;;4983294;28;20046;-60
2023/05/16 01:00:46;;;;;;;12.13;10.75;;;11.90;99.90;;;;;;4985026;28;20120;-64
2023/05/16 01:03:14;;;;;;;10.40;9.52;;;11.90;99.90;;;;;;5005749;28;20116;-60
2023/05/16 01:05:41;;;;;;;24.25;12.18;;;11.80;99.90;;;;;;5002501;28;21563;-63
2023/05/16 01:08:09;;;;;;;18.33;11.75;;;11.80;99.90;;;;;;4988749;28;20046;-64
2023/05/16 01:10:58;;;;;;;12.38;11.15;;;11.70;99.90;;;;;;5005867;28;20050;-63
2023/05/16 01:13:45;;;;;;;13.88;10.93;;;11.80;99.90;;;;;;5001022;28;20200;-63
2023/05/16 01:16:20;;;;;;;14.38;11.75;;;11.70;99.90;;;;;;4987080;28;20650;-68
2023/05/16 01:19:12;;;;;;;14.32;11.10;;;11.70;99.90;;;;;;5003987;28;20163;-61
2023/05/16 01:21:43;;;;;;;12.15;10.48;;;11.70;99.90;;;;;;4999189;28;20058;-67
2023/05/16 01:24:21;;;;;;;11.93;10.18;;;11.70;99.90;;;;;;5003984;28;20072;-64
2023/05/16 01:26:50;;;;;;;13.15;11.80;;;11.70;99.90;;;;;;5003318;28;20050;-69
2023/05/16 01:29:17;;;;;;;17.33;13.05;;;11.70;99.90;;;;;;5005521;28;20434;-63
2023/05/16 01:31:44;;;;;;;13.23;11.90;;;11.60;99.90;;;;;;5005172;28;20049;-58
2023/05/16 01:34:12;;;;;;;12.77;11.63;;;11.60;99.90;;;;;;5003858;28;20062;-69
2023/05/16 01:36:59;;;;;;;12.27;10.90;;;11.60;99.90;;;;;;5003491;28;20081;-59
2023/05/16 01:39:31;;;;;;;14.15;10.82;;;11.70;99.90;;;;;;5000327;28;20073;-68
2023/05/16 01:42:08;;;;;;;13.07;11.75;;;11.60;99.90;;;;;;5001492;28;20089;-59
2023/05/16 01:44:40;;;;;;;11.00;9.90;;;11.60;99.90;;;;;;5001063;28;20132;-58
2023/05/16 01:47:12;;;;;;;12.48;10.93;;;11.60;99.90;;;;;;5002087;28;20137;-61
2023/05/16 01:50:09;;;;;;;15.23;10.95;;;11.60;99.90;;;;;;5004716;28;20080;-62
2023/05/16 01:53:10;;;;;;;11.57;10.32;;;11.60;99.90;;;;;;5004608;28;20092;-60
2023/05/16 01:55:50;;;;;;;11.90;10.77;;;11.60;99.90;;;;;;5002324;28;20061;-61
2023/05/16 01:58:20;;;;;;;13.48;12.10;;;11.60;99.90;;;;;;5003867;28;20053;-60
2023/05/16 02:00:47;;;;;;;10.60;9.55;;;11.60;99.90;;;;;;4999699;28;20037;-63
2023/05/16 02:03:14;;;;;;;15.20;10.98;;;11.60;99.90;;;;;;5002501;28;20157;-68
2023/05/16 02:05:41;;;;;;;13.52;11.98;;;11.60;99.90;;;;;;4982077;28;20108;-67
2023/05/16 02:08:12;;;;;;;12.35;8.80;;;11.60;99.90;;;;;;4987505;28;20136;-64
2023/05/16 02:10:40;;;;;;;10.88;9.85;;;11.60;99.90;;;;;;4999558;28;20136;-71
2023/05/16 02:13:07;;;;;;;10.98;9.10;;;11.60;99.90;;;;;;5002311;28;20127;-65
2023/05/16 02:15:34;;;;;;;10.18;8.73;;;11.60;99.90;;;;;;4986320;28;20050;-65
2023/05/16 02:18:00;;;;;;;12.15;10.70;;;11.60;99.90;;;;;;4983606;28;20392;-64
2023/05/16 02:20:27;;;;;;;13.48;9.50;;;11.60;99.90;;;;;;5002160;28;20054;-65
2023/05/16 02:22:54;;;;;;;15.00;10.40;;;11.60;99.90;;;;;;4984421;28;20153;-61
2023/05/16 02:25:21;;;;;;;14.35;10.32;;;11.50;99.90;;;;;;4996122;28;21225;-63
2023/05/16 02:27:48;;;;;;;12.35;11.15;;;11.40;99.90;;;;;;5004174;28;20427;-70
2023/05/16 02:30:15;;;;;;;18.80;10.73;;;11.40;99.90;;;;;;5003879;28;20033;-66
2023/05/16 02:32:43;;;;;;;14.48;12.35;;;11.30;99.90;;;;;;5004401;28;20099;-64
2023/05/16 02:35:11;;;;;;;11.73;10.52;;;11.30;99.90;;;;;;5005649;28;20085;-59
2023/05/16 02:37:38;;;;;;;10.82;8.50;;;11.30;99.90;;;;;;5003309;28;20495;-66
2023/05/16 02:40:06;;;;;;;14.45;11.40;;;11.30;99.90;;;;;;5004694;28;20136;-62
2023/05/16 02:42:35;;;;;;;12.43;11.23;;;11.20;99.90;;;;;;4983241;28;20057;-63
2023/05/16 02:45:02;;;;;;;12.63;11.43;;;11.20;99.90;;;;;;5005570;28;20061;-62
2023/05/16 02:47:29;;;;;;;11.38;10.05;;;11.30;99.90;;;;;;5003505;28;20054;-63
2023/05/16 02:49:56;;;;;;;12.65;10.27;;;11.20;99.90;;;;;;5004584;28;20041;-64
2023/05/16 02:52:23;;;;;;;12.80;10.77;;;11.20;99.90;;;;;;4986783;28;20062;-66
2023/05/16 02:54:50;;;;;;;15.70;11.95;;;11.20;99.90;;;;;;5004632;28;20149;-67
2023/05/16 02:57:37;;;;;;;12.50;11.27;;;11.20;99.90;;;;;;4980615;28;20054;-64
2023/05/16 03:00:05;;;;;;;13.85;12.45;;;11.20;99.90;;;;;;5005854;28;20075;-63
2023/05/16 03:02:32;;;;;;;12.32;11.23;;;11.20;99.90;;;;;;5004339;28;20511;-72
2023/05/16 03:04:59;;;;;;;14.05;10.10;;;11.20;99.90;;;;;;5004787;28;20123;-66
2023/05/16 03:07:26;;;;;;;16.23;12.80;;;11.20;99.90;;;;;;5001357;28;20057;-60
2023/05/16 03:09:53;;;;;;;13.50;12.20;;;11.20;99.90;;;;;;5002874;28;20707;-66
2023/05/16 03:12:19;;;;;;;18.05;12.48;;;11.10;99.90;;;;;;5004189;28;20057;-63
2023/05/16 03:14:46;;;;;;;12.65;11.30;;;11.10;99.90;;;;;;4989437;28;20443;-66
2023/05/16 03:17:13;;;;;;;16.08;10.57;;;11.10;99.90;;;;;;5004475;28;20170;-66
2023/05/16 03:19:40;;;;;;;15.10;11.25;;;11.10;99.90;;;;;;5002216;28;20380;-61
2023/05/16 03:22:07;;;;;;;12.05;10.95;;;11.10;99.90;;;;;;5003190;28;20058;-66
2023/05/16 03:24:34;;;;;;;11.88;10.20;;;11.10;99.90;;;;;;4999783;28;20053;-65
2023/05/16 03:27:03;;;;;;;12.63;11.43;;;11.10;99.90;;;;;;5001410;28;20073;-61
2023/05/16 03:29:30;;;;;;;13.98;11.77;;;11.10;99.90;;;;;;4997422;28;20480;-67
2023/05/16 03:31:57;;;;;;;13.02;11.82;;;11.10;99.90;;;;;;4982037;28;20510;-70
2023/05/16 03:34:24;;;;;;;15.73;13.10;;;11.10;99.90;;;;;;5004433;28;20060;-62
2023/05/16 03:36:51;;;;;;;12.82;11.50;;;11.10;99.90;;;;;;4983011;28;20117;-70
2023/05/16 03:39:18;;;;;;;12.40;11.40;;;11.00;99.90;;;;;;5000613;28;20132;-69
2023/05/16 03:41:46;;;;;;;14.85;12.63;;;11.00;99.90;;;;;;5001080;28;20046;-63
2023/05/16 03:44:13;;;;;;;14.50;13.10;;;11.00;99.90;;;;;;5004471;28;20415;-64
2023/05/16 03:46:39;;;;;;;14.20;11.98;;;11.00;99.90;;;;;;5001057;28;20077;-64
2023/05/16 03:49:06;;;;;;;12.73;11.45;;;11.00;99.90;;;;;;5002937;28;20072;-61
2023/05/16 03:51:33;;;;;;;12.65;10.82;;;11.00;99.90;;;;;;4984000;28;20405;-64
2023/05/16 03:54:00;;;;;;;11.60;10.27;;;10.90;99.90;;;;;;5003746;28;20141;-63
2023/05/16 03:56:27;;;;;;;14.38;12.65;;;10.90;99.90;;;;;;4982400;28;20137;-62
2023/05/16 03:58:54;;;;;;;12.88;11.68;;;10.90;99.90;;;;;;5004317;28;20054;-61
2023/05/16 04:01:21;;;;;;;12.48;11.38;;;10.90;99.90;;;;;;5000264;28;20056;-68
2023/05/16 04:03:49;;;;;;;13.98;12.68;;;10.90;99.90;;;;;;5004252;28;20046;-59
2023/05/16 04:06:16;;;;;;;10.23;9.25;;;11.00;99.90;;;;;;5002863;28;20057;-62
2023/05/16 04:08:43;;;;;;;12.95;11.68;;;10.90;99.90;;;;;;5003674;28;20427;-71
2023/05/16 04:11:11;;;;;;;15.80;14.32;;;10.90;99.90;;;;;;5000280;28;20634;-59
2023/05/16 04:13:37;;;;;;;14.93;10.90;;;11.00;99.90;;;;;;4984269;28;20054;-58
2023/05/16 04:16:05;;;;;;;11.32;10.23;;;11.00;99.90;;;;;;5003838;28;20054;-67
2023/05/16 04:18:32;;;;;;;14.27;10.90;;;11.00;99.90;;;;;;4999571;28;20124;-58
2023/05/16 04:20:59;;;;;;;15.35;13.02;;;11.00;99.90;;;;;;4985566;28;20041;-58
2023/05/16 04:23:26;;;;;;;13.15;10.68;;;11.00;99.90;;;;;;4999769;28;20817;-63
2023/05/16 04:25:54;;;;;;;12.25;11.15;;;11.00;99.90;;;;;;5002482;28;20046;-64
2023/05/16 04:28:21;;;;;;;11.60;10.48;;;11.00;99.90;;;;;;5000691;28;20149;-60
2023/05/16 04:30:48;;;;;;;12.13;11.02;;;11.00;99.90;;;;;;5001024;28;20041;-68
2023/05/16 04:33:15;;;;;;;10.55;9.60;;;11.00;99.90;;;;;;4999468;28;20139;-58
2023/05/16 04:35:42;;;;;;;10.35;9.45;;;10.90;99.90;;;;;;4997956;28;20053;-63
2023/05/16 04:38:09;;;;;;;10.05;9.18;;;10.90;99.90;;;;;;5000613;28;20053;-62
2023/05/16 04:40:36;;;;;;;10.77;9.77;;;10.90;99.90;;;;;;5002281;28;20145;-58
2023/05/16 04:43:03;;;;;;;12.40;11.00;;;10.80;99.90;;;;;;4982147;28;20065;-59
2023/05/16 04:45:30;;;;;;;11.27;10.23;;;10.90;99.90;;;;;;4999395;28;20062;-68
2023/05/16 04:47:57;;;;;;;13.85;11.68;;;10.90;99.90;;;;;;5000567;28;20558;-59
2023/05/16 04:50:24;;;;;;;12.20;10.68;;;10.90;99.90;;;;;;4998978;28;20057;-63
2023/05/16 04:52:51;;;;;;;14.18;12.68;;;10.90;99.90;;;;;;5002451;28;20089;-65
2023/05/16 04:55:20;;;;;;;13.52;12.10;;;10.90;99.90;;;;;;4998541;28;20053;-64
2023/05/16 04:57:47;;;;;;;13.43;12.23;;;10.90;99.90;;;;;;5001988;28;20052;-61
2023/05/16 05:00:15;;;;;;;14.88;12.85;;;10.90;99.90;;;;;;5001813;28;20053;-68
2023/05/16 05:02:42;;;;;;;14.38;12.88;;;10.80;99.90;;;;;;5002955;28;20042;-64
2023/05/16 05:05:10;;;;;;;14.40;12.88;;;10.80;99.90;;;;;;4999064;28;20163;-60
2023/05/16 05:07:37;;;;;;;14.85;12.15;;;10.80;99.90;;;;;;5000186;28;20145;-67
2023/05/16 05:10:05;;;;;;;12.18;10.98;;;10.80;99.90;;;;;;4998223;28;20050;-62
2023/05/16 05:12:32;;;;;;;10.80;9.77;;;10.70;99.90;;;;;;4999144;28;20084;-60
2023/05/16 05:14:59;;;;;;;11.23;10.13;;;10.70;99.90;;;;;;5000963;28;20046;-70
2023/05/16 05:17:26;;;;;;;10.55;9.63;;;10.70;99.90;;;;;;5000183;28;20077;-61
2023/05/16 05:19:54;;;;;;;13.75;10.57;;;10.70;99.90;;;;;;5000993;28;20065;-62
2023/05/16 05:22:20;;;;;;;11.98;10.82;;;10.70;99.90;;;;;;4996112;28;20505;-63
2023/05/16 05:24:47;;;;;;;10.90;10.00;;;10.70;99.90;;;;;;5000300;28;20630;-66
2023/05/16 05:27:14;;;;;;;10.23;9.23;;;10.70;99.90;;;;;;4999496;28;20047;-68
2023/05/16 05:29:41;;;;;;;11.90;9.70;;;10.80;99.90;;;;;;4998209;28;20052;-67
2023/05/16 05:32:08;;;;;;;11.45;10.35;;;10.80;99.90;;;;;;4999743;28;20092;-59
2023/05/16 05:34:35;;;;;;;10.40;8.10;;;10.90;99.90;;;;;;4991879;28;20838;-64
2023/05/16 05:37:02;;;;;;;7.32;6.72;;;10.80;99.90;;;;;;4996027;28;20453;-64
2023/05/16 05:39:29;;;;;;;10.02;9.13;;;10.90;99.90;;;;;;4999450;28;20058;-63
2023/05/16 05:41:57;;;;;;;8.98;8.07;;;10.90;99.90;;;;;;4999965;28;20050;-64
2023/05/16 05:44:24;;;;;;;7.82;7.22;;;10.90;99.90;;;;;;5000720;28;21457;-67
2023/05/16 05:46:51;;;;;;;7.90;7.10;;;10.90;99.90;;;;;;5004546;28;20056;-60
2023/05/16 05:49:18;;;;;;;7.95;7.25;;;10.90;99.90;;;;;;5002232;28;20112;-64
2023/05/16 05:51:45;;;;;;;9.40;8.50;;;10.90;99.90;;;;;;5002929;28;20100;-66
2023/05/16 05:54:12;;;;;;;9.88;8.88;;;11.00;99.90;;;;;;5001395;28;20140;-60
2023/05/16 05:56:39;;;;;;;8.38;7.68;;;11.00;99.90;;;;;;5002423;28;20452;-60
2023/05/16 05:59:06;;;;;;;7.43;6.82;;;11.00;99.90;;;;;;5002537;28;20373;-67
2023/05/16 06:01:32;;;;;;;6.93;6.32;;;11.00;99.90;;;;;;5003243;28;20322;-59
2023/05/16 06:03:59;;;;;;;7.55;6.95;;;11.00;99.90;;;;;;5004449;28;20057;-61
2023/05/16 06:06:28;;;;;;;7.03;6.43;;;11.10;99.90;;;;;;5003994;28;20058;-67
2023/05/16 06:08:55;;;;;;;6.82;6.13;;;11.10;99.90;;;;;;5002202;28;20506;-62
2023/05/16 06:11:22;;;;;;;6.72;6.13;;;11.10;99.90;;;;;;5001115;28;20435;-60
2023/05/16 06:13:49;;;;;;;8.07;7.28;;;11.20;99.90;;;;;;5002568;28;20048;-66
2023/05/16 06:16:15;;;;;;;7.90;7.07;;;11.20;99.90;;;;;;5003392;28;20136;-69
2023/05/16 06:18:43;;;;;;;8.00;7.05;;;11.30;99.90;;;;;;5001248;28;20054;-60
2023/05/16 06:21:10;;;;;;;7.00;6.40;;;11.30;99.90;;;;;;5004294;28;20525;-62
2023/05/16 06:23:36;;;;;;;8.60;7.82;;;11.40;99.90;;;;;;5001067;28;20050;-62
2023/05/16 06:26:03;;;;;;;7.47;6.47;;;11.40;99.90;;;;;;4999171;28;20064;-60
2023/05/16 06:28:30;;;;;;;4.35;3.95;;;11.60;99.90;;;;;;5001384;28;20660;-65
2023/05/16 06:30:57;;;;;;;4.63;4.32;;;11.70;99.90;;;;;;5002885;28;20144;-65
2023/05/16 06:33:24;;;;;;;9.10;5.03;;;11.80;99.90;;;;;;5002903;28;20085;-62
2023/05/16 06:35:51;;;;;;;4.60;4.28;;;12.00;99.90;;;;;;5006461;28;20073;-66
2023/05/16 06:38:18;;;;;;;5.15;4.60;;;12.10;99.90;;;;;;5003669;28;20054;-63
2023/05/16 06:40:45;;;;;;;5.05;4.57;;;12.30;99.90;;;;;;4997429;28;20088;-63
2023/05/16 06:43:12;;;;;;;4.63;4.32;;;12.40;99.90;;;;;;5003966;28;20084;-68
2023/05/16 06:45:40;;;;;;;4.95;3.97;;;12.40;99.90;;;;;;4982644;28;20054;-70
2023/05/16 06:48:07;;;;;;;4.70;4.30;;;12.50;99.90;;;;;;5001333;28;20053;-71
2023/05/16 06:50:34;;;;;;;4.88;4.43;;;12.60;99.90;;;;;;5000788;28;20046;-64
2023/05/16 06:53:03;;;;;;;4.53;4.13;;;12.70;99.90;;;;;;5000884;28;20112;-61
2023/05/16 06:55:30;;;;;;;4.35;3.85;;;12.80;99.90;;;;;;4997957;28;20050;-67
2023/05/16 06:57:57;;;;;;;3.80;3.50;;;12.90;99.90;;;;;;4997125;28;20157;-62
2023/05/16 07:00:24;;;;;;;4.03;3.72;;;13.00;99.90;;;;;;5003132;28;20219;-63
2023/05/16 07:02:52;;;;;;;4.63;4.25;;;13.10;99.90;;;;;;4995748;28;20057;-68
2023/05/16 07:05:19;;;;;;;4.28;3.97;;;13.20;99.90;;;;;;4998824;28;20132;-66
2023/05/16 07:07:46;;;;;;;4.05;3.75;;;13.30;99.90;;;;;;4996050;28;20145;-65
2023/05/16 07:10:14;;;;;;;4.05;3.72;;;13.30;99.90;;;;;;5001835;28;20058;-61
2023/05/16 07:12:42;;;;;;;5.00;4.60;;;13.40;99.90;;;;;;5002700;28;20053;-68
2023/05/16 07:15:09;;;;;;;4.15;3.83;;;13.50;99.90;;;;;;5002514;28;20124;-61
2023/05/16 07:17:36;;;;;;;4.53;4.13;;;13.60;99.90;;;;;;5001771;28;20050;-63
2023/05/16 07:20:05;;;;;;;6.22;4.53;;;13.60;99.90;;;;;;4998718;28;20964;-67
2023/05/16 07:22:32;;;;;;;3.78;3.47;;;13.70;99.90;;;;;;5001437;28;20104;-60
2023/05/16 07:24:59;;;;;;;5.40;4.32;;;13.70;99.90;;;;;;4992080;28;20084;-61
2023/05/16 07:27:27;;;;;;;3.80;3.50;;;13.80;99.90;;;;;;4999277;28;20062;-65
2023/05/16 07:29:54;;;;;;;4.18;3.78;;;13.80;99.90;;;;;;5001448;28;20104;-63
2023/05/16 07:32:21;;;;;;;3.67;3.38;;;13.80;99.90;;;;;;5002555;28;20186;-64
2023/05/16 07:34:48;;;;;;;4.53;4.13;;;13.80;99.90;;;;;;5000388;28;20073;-66
2023/05/16 07:37:15;;;;;;;4.07;3.78;;;13.70;99.90;;;;;;4998307;28;20042;-61
2023/05/16 07:39:42;;;;;;;4.82;4.53;;;13.70;99.90;;;;;;5001390;28;20049;-59
2023/05/16 07:42:09;;;;;;;4.65;4.28;;;13.70;99.90;;;;;;5001824;28;20157;-65
2023/05/16 07:44:36;;;;;;;5.20;4.72;;;13.60;99.90;;;;;;5003434;28;20096;-61
2023/05/16 07:47:03;;;;;;;7.25;5.00;;;13.50;99.90;;;;;;5002384;28;20725;-62
2023/05/16 07:49:30;;;;;;;4.97;4.60;;;13.50;99.90;;;;;;5001588;28;20409;-68
2023/05/16 07:51:57;;;;;;;6.65;6.07;;;13.40;99.90;;;;;;5000252;28;20081;-65
2023/05/16 07:54:24;;;;;;;6.05;5.40;;;13.40;99.90;;;;;;5003815;28;20081;-59
2023/05/16 07:56:51;;;;;;;6.30;5.70;;;13.30;99.90;;;;;;5001507;28;20136;-67
2023/05/16 07:59:18;;;;;;;6.40;5.80;;;13.30;99.90;;;;;;5002776;28;20511;-60
2023/05/16 08:01:45;;;;;;;6.38;5.78;;;13.30;99.90;;;;;;5001868;28;20173;-68
2023/05/16 08:04:12;;;;;;;6.75;6.25;;;13.30;99.90;;;;;;5002580;28;20412;-67
2023/05/16 08:06:39;;;;;;;5.57;5.13;;;13.30;99.90;;;;;;4999221;28;20056;-59
2023/05/16 08:09:05;;;;;;;6.50;6.00;;;13.40;99.90;;;;;;5002053;28;20058;-61
2023/05/16 08:11:32;;;;;;;7.57;5.20;;;13.40;99.90;;;;;;4999477;28;20054;-62
2023/05/16 08:13:59;;;;;;;6.95;6.30;;;13.40;99.90;;;;;;5003895;28;20100;-58
2023/05/16 08:16:26;;;;;;;6.22;5.63;;;13.40;99.90;;;;;;5002782;28;20053;-63
2023/05/16 08:18:54;;;;;;;6.32;5.88;;;13.40;99.90;;;;;;5002368;28;20119;-62
2023/05/16 08:21:21;;;;;;;5.45;4.95;;;13.50;99.90;;;;;;5000719;28;20113;-63
2023/05/16 08:23:48;;;;;;;6.78;6.18;;;13.50;99.90;;;;;;4999735;28;20986;-62
2023/05/16 08:26:16;;;;;;;6.65;6.05;;;13.60;99.90;;;;;;5001393;28;20570;-64
2023/05/16 08:28:43;;;;;;;8.27;7.45;;;13.60;99.90;;;;;;5002256;28;20554;-62
2023/05/16 08:31:10;;;;;;;6.40;5.90;;;13.60;99.90;;;;;;5002110;28;20577;-60
2023/05/16 08:33:37;;;;;;;6.45;5.88;;;13.70;99.90;;;;;;5001319;28;20053;-61
2023/05/16 08:36:05;;;;;;;6.45;5.85;;;13.80;99.90;;;;;;4998199;28;20081;-62
2023/05/16 08:38:31;;;;;;;8.13;7.43;;;14.00;99.90;;;;;;4999642;28;20077;-63
2023/05/16 08:40:59;;;;;;;6.28;5.78;;;14.40;99.90;;;;;;5001925;28;20054;-61
2023/05/16 08:43:26;;;;;;;7.03;6.32;;;14.80;99.90;;;;;;4991790;28;20057;-67
2023/05/16 08:45:53;;;;;;;6.38;5.78;;;15.10;99.90;;;;;;5002258;28;20033;-62
2023/05/16 08:48:22;;;;;;;6.38;5.65;;;15.20;99.90;;;;;;5002316;28;20046;-64
2023/05/16 08:50:50;;;;;;;5.13;4.63;;;15.00;99.90;;;;;;4986044;28;20049;-70
2023/05/16 08:53:21;;;;;;;4.30;4.00;;;15.00;99.90;;;;;;5003059;28;20124;-62
2023/05/16 08:55:50;;;;;;;5.55;5.15;;;14.90;99.90;;;;;;4998170;28;20107;-66
2023/05/16 08:58:18;;;;;;;4.82;3.97;;;14.40;99.90;;;;;;5002404;28;20061;-64
2023/05/16 09:00:46;;;;;;;4.90;4.40;;;14.00;99.90;;;;;;5001458;28;20062;-63
2023/05/16 09:03:14;;;;;;;5.22;4.82;;;13.80;99.90;;;;;;5002475;28;20068;-65
2023/05/16 09:05:41;;;;;;;5.80;5.25;;;13.70;99.90;;;;;;5000726;28;20052;-61
2023/05/16 09:08:08;;;;;;;7.70;5.97;;;13.70;99.90;;;;;;5002828;28;20111;-62
2023/05/16 09:10:35;;;;;;;7.53;6.35;;;13.50;99.90;;;;;;4998590;28;20503;-62
2023/05/16 09:13:03;;;;;;;5.57;5.07;;;13.40;99.90;;;;;;5001846;28;20536;-63
2023/05/16 09:15:33;;;;;;;5.70;4.93;;;13.40;99.90;;;;;;5001185;28;20085;-66
2023/05/16 09:18:01;;;;;;;7.15;5.72;;;13.30;99.90;;;;;;5001862;28;20068;-61
2023/05/16 09:20:28;;;;;;;5.70;5.20;;;13.50;99.90;;;;;;5003903;28;20089;-67
2023/05/16 09:22:57;;;;;;;6.95;5.80;;;13.50;99.90;;;;;;5006086;28;20917;-60
2023/05/16 09:25:29;;;;;;;9.98;6.00;;;13.60;99.90;;;;;;5002144;28;20423;-66
2023/05/16 09:28:00;;;;;;;8.05;5.28;;;13.80;99.90;;;;;;5005703;28;20147;-60
2023/05/16 09:30:33;;;;;;;9.52;5.45;;;13.80;99.90;;;;;;5004395;28;20120;-72
2023/05/16 09:33:00;;;;;;;5.82;5.22;;;14.00;99.90;;;;;;4985353;28;20070;-64
2023/05/16 09:35:28;;;;;;;5.50;5.10;;;14.20;99.90;;;;;;5003874;28;20060;-65
2023/05/16 09:37:58;;;;;;;10.80;6.22;;;14.30;99.90;;;;;;5006762;28;20046;-60
2023/05/16 09:40:25;;;;;;;7.03;6.40;;;14.20;99.90;;;;;;5002072;28;20137;-63
2023/05/16 09:43:03;;;;;;;11.18;7.05;;;14.40;99.90;;;;;;5001516;28;20038;-58
2023/05/16 09:45:35;;;;;;;8.05;5.78;;;14.20;99.90;;;;;;5004006;28;20462;-65
2023/05/16 09:48:08;;;;;;;6.35;5.85;;;14.20;99.90;;;;;;5005549;28;20081;-61
2023/05/16 09:50:36;;;;;;;8.98;5.68;;;13.90;99.90;;;;;;5004062;28;20841;-63
2023/05/16 09:53:04;;;;;;;8.38;7.18;;;13.80;99.90;;;;;;5005609;28;20045;-62
2023/05/16 09:55:31;;;;;;;8.27;6.53;;;13.80;99.90;;;;;;5002504;28;20088;-63
2023/05/16 09:57:58;;;;;;;12.23;6.45;;;13.70;99.90;;;;;;4998197;28;20542;-62
2023/05/16 10:00:30;;;;;;;8.07;5.65;;;14.00;99.90;;;;;;5005174;28;20495;-69
2023/05/16 10:02:59;;;;;;;7.28;5.50;;;14.00;99.90;;;;;;5003063;28;20057;-60
2023/05/16 10:05:31;;;;;;;8.32;6.35;;;14.10;99.90;;;;;;5002417;28;20053;-64
2023/05/16 10:07:58;;;;;;;6.38;5.30;;;14.20;99.90;;;;;;5001316;28;20054;-60
2023/05/16 10:10:26;;;;;;;7.22;6.53;;;14.20;99.90;;;;;;5002400;28;20058;-72
2023/05/16 10:12:57;;;;;;;6.15;5.60;;;14.30;99.90;;;;;;5004298;28;20136;-62
2023/05/16 10:15:24;;;;;;;4.78;4.28;;;14.30;99.90;;;;;;4998880;28;20138;-64
2023/05/16 10:17:53;;;;;;;6.60;5.32;;;14.40;99.90;;;;;;5003014;28;20056;-61
2023/05/16 10:20:22;;;;;;;5.45;4.95;;;14.50;99.90;;;;;;5001012;28;20160;-68
2023/05/16 10:22:52;;;;;;;5.00;4.60;;;14.50;99.90;;;;;;5002776;28;20092;-60
2023/05/16 10:25:30;;;;;;;4.63;4.22;;;14.40;99.90;;;;;;4999100;28;20057;-62
2023/05/16 10:27:58;;;;;;;3.88;3.58;;;14.40;99.90;;;;;;5001768;28;20053;-63
2023/05/16 10:30:26;;;;;;;4.75;4.07;;;14.30;99.90;;;;;;4997890;28;20500;-68
2023/05/16 10:32:53;;;;;;;3.95;3.60;;;14.50;99.90;;;;;;5000750;28;20057;-64
2023/05/16 10:35:20;;;;;;;5.05;4.65;;;14.80;99.90;;;;;;5000855;28;20088;-66
2023/05/16 10:37:49;;;;;;;4.75;4.32;;;15.10;99.90;;;;;;5002559;28;20060;-65
2023/05/16 10:40:17;;;;;;;3.53;3.22;;;15.50;99.90;;;;;;5001674;28;20065;-64
2023/05/16 10:42:57;;;;;;;4.00;3.70;;;15.30;99.90;;;;;;5000377;28;20057;-62
2023/05/16 10:45:24;;;;;;;4.55;3.92;;;15.00;99.90;;;;;;4995445;28;20058;-66
2023/05/16 10:47:52;;;;;;;4.22;3.92;;;14.80;99.90;;;;;;4999717;28;20066;-64
2023/05/16 10:50:40;;;;;;;3.35;3.10;;;14.80;99.90;;;;;;5001084;28;20054;-64
2023/05/16 10:53:15;;;;;;;3.97;3.67;;;14.80;99.90;;;;;;4999817;28;20137;-65
2023/05/16 10:55:58;;;;;;;3.60;3.30;;;14.80;99.90;;;;;;4997084;28;20080;-67
2023/05/16 10:58:34;;;;;;;3.90;3.20;;;15.00;99.90;;;;;;5000770;28;20053;-61
2023/05/16 11:01:29;;;;;;;5.72;4.95;;;15.10;99.90;;;;;;5000497;28;20096;-64
2023/05/16 11:03:59;;;;;;;5.90;4.90;;;14.90;99.90;;;;;;4997424;28;20833;-64
2023/05/16 11:06:41;;;;;;;10.80;4.95;;;14.80;99.90;;;;;;5001957;28;20057;-63
2023/05/16 11:09:12;;;;;;;5.68;5.18;;;14.80;99.90;;;;;;4999107;28;20034;-63
2023/05/16 11:11:52;;;;;;;6.25;5.50;;;14.60;99.90;;;;;;4996116;28;20046;-66
2023/05/16 11:14:36;;;;;;;6.10;5.60;;;14.60;99.90;;;;;;5000381;28;20510;-64
2023/05/16 11:17:08;;;;;;;6.25;5.60;;;14.90;99.90;;;;;;4999034;28;20872;-69
2023/05/16 11:19:42;;;;;;;6.35;5.72;;;15.10;99.90;;;;;;4998330;28;20157;-60
2023/05/16 11:22:19;;;;;;;8.02;5.97;;;15.30;99.90;;;;;;4998916;28;20058;-63
2023/05/16 11:24:48;;;;;;;6.30;5.68;;;15.40;99.90;;;;;;5002760;28;20500;-65
2023/05/16 11:27:27;;;;;;;6.80;6.13;;;15.40;99.90;;;;;;4999195;28;20054;-62
2023/05/16 11:30:16;;;;;;;7.47;6.70;;;15.60;99.90;;;;;;4998849;28;20057;-60
2023/05/16 11:32:44;;;;;;;8.52;7.90;;;15.50;99.90;;;;;;4996735;28;20053;-59
2023/05/16 11:35:16;;;;;;;10.85;8.98;;;15.50;99.90;;;;;;4996635;28;20475;-66
2023/05/16 11:37:45;;;;;;;13.65;9.30;;;15.30;99.90;;;;;;4999014;28;20108;-68
2023/05/16 11:40:13;;;;;;;10.75;9.65;;;15.00;99.90;;;;;;4999215;28;20066;-62
2023/05/16 11:42:47;;;;;;;12.60;9.65;;;14.90;99.90;;;;;;4999263;28;20507;-65
2023/05/16 11:45:20;;;;;;;13.43;9.55;;;14.80;99.90;;;;;;5001009;28;20050;-67
2023/05/16 11:47:48;;;;;;;11.70;8.60;;;14.70;99.90;;;;;;4997760;28;20084;-64
2023/05/16 11:50:17;;;;;;;14.45;9.35;;;14.90;99.90;;;;;;4997494;28;20142;-65
2023/05/16 11:52:52;;;;;;;11.48;10.27;;;14.90;99.90;;;;;;5000762;28;20104;-64
2023/05/16 11:55:22;;;;;;;9.43;8.20;;;14.90;99.90;;;;;;5000688;28;20056;-63
2023/05/16 11:58:06;;;;;;;13.48;8.40;;;15.00;99.90;;;;;;4999357;28;20140;-64
2023/05/16 12:00:33;;;;;;;10.60;9.15;;;15.10;99.90;;;;;;5002551;28;20041;-64
2023/05/16 12:03:06;;;;;;;14.25;11.90;;;14.80;99.90;;;;;;5001420;28;20081;-65
2023/05/16 12:05:34;;;;;;;16.08;11.13;;;14.50;99.90;;;;;;4996476;28;20065;-60
2023/05/16 12:08:04;;;;;;;18.05;12.23;;;14.50;99.90;;;;;;5001938;28;20089;-68
2023/05/16 12:10:33;;;;;;;17.90;12.27;;;14.20;99.90;;;;;;5001964;28;20112;-63
2023/05/16 12:13:01;;;;;;;10.15;8.75;;;13.90;99.90;;;;;;5002407;28;20111;-67
2023/05/16 12:15:28;;;;;;;12.77;11.20;;;14.00;99.90;;;;;;5001689;28;20120;-67
2023/05/16 12:17:56;;;;;;;11.18;9.98;;;14.00;99.90;;;;;;5002739;28;20057;-60
2023/05/16 12:20:24;;;;;;;9.25;8.45;;;14.10;99.90;;;;;;5001216;28;20152;-64
2023/05/16 12:22:52;;;;;;;16.13;10.32;;;13.80;99.90;;;;;;4999323;28;20046;-69
2023/05/16 12:25:29;;;;;;;11.80;9.55;;;13.90;99.90;;;;;;5002745;28;20057;-60
2023/05/16 12:27:59;;;;;;;12.20;10.25;;;13.80;99.90;;;;;;4999005;28;20057;-64
2023/05/16 12:30:27;;;;;;;15.90;9.85;;;14.10;99.90;;;;;;4996233;28;20093;-65
2023/05/16 12:32:58;;;;;;;15.13;11.45;;;14.00;99.90;;;;;;5002127;28;20065;-62
2023/05/16 12:35:28;;;;;;;;;;;14.20;99.90;;;;;;5001197;28;20077;-60
2023/05/16 12:37:55;;;;;;;13.25;11.88;;;14.20;99.90;;;;;;5000683;28;20377;-60
2023/05/16 12:40:23;;;;;;;12.65;10.48;;;14.10;99.90;;;;;;5002548;28;20159;-63
2023/05/16 12:42:51;;;;;;;15.35;11.90;;;14.00;99.90;;;;;;5002244;28;20042;-65
2023/05/16 12:45:18;;;;;;;13.35;10.80;;;14.10;99.90;;;;;;5003208;28;20054;-66
2023/05/16 12:47:46;;;;;;;17.45;12.38;;;14.00;99.90;;;;;;4998946;28;20050;-59